createdAt,value
2023-04-18T00:00:36.719Z,0.00
2023-04-18T00:01:36.731Z,0.00
2023-04-18T00:02:36.827Z,0.00
2023-04-18T00:03:36.927Z,0.00
2023-04-18T00:04:36.758Z,0.00
2023-04-18T00:05:36.576Z,0.00
2023-04-18T00:06:36.541Z,0.00
2023-04-18T00:07:36.518Z,0.00
2023-04-18T00:08:36.490Z,0.00
2023-04-18T00:09:36.470Z,0.00
2023-04-18T00:10:36.423Z,0.00
2023-04-18T00:11:36.396Z,0.00
2023-04-18T00:12:36.371Z,0.00
2023-04-18T00:13:36.335Z,0.00
2023-04-18T00:14:36.307Z,0.00
2023-04-18T00:15:36.284Z,0.00
2023-04-18T00:16:36.326Z,0.00
2023-04-18T00:17:36.245Z,0.00
2023-04-18T00:18:36.190Z,0.00
2023-04-18T00:19:36.181Z,0.00
2023-04-18T00:20:36.132Z,0.00
2023-04-18T00:21:36.118Z,0.00
2023-04-18T00:22:36.094Z,0.00
2023-04-18T00:23:36.068Z,0.00
2023-04-18T00:24:36.016Z,0.00
2023-04-18T00:25:35.987Z,0.00
2023-04-18T00:26:35.958Z,0.00
2023-04-18T00:27:35.929Z,0.00
2023-04-18T00:28:35.900Z,0.00
2023-04-18T00:29:35.878Z,0.00
2023-04-18T00:30:35.873Z,0.00
2023-04-18T00:31:35.809Z,0.00
2023-04-18T00:32:35.968Z,0.00
2023-04-18T00:33:35.760Z,0.00
2023-04-18T00:34:35.725Z,0.00
2023-04-18T00:35:35.728Z,0.00
2023-04-18T00:36:35.669Z,0.00
2023-04-18T00:37:35.644Z,0.00
2023-04-18T00:38:35.613Z,0.00
2023-04-18T00:39:35.581Z,0.00
2023-04-18T00:40:35.570Z,0.00
2023-04-18T00:41:35.521Z,0.00
2023-04-18T00:42:35.495Z,0.00
2023-04-18T00:43:35.465Z,0.00
2023-04-18T00:44:35.439Z,0.00
2023-04-18T00:45:35.416Z,0.00
2023-04-18T00:46:35.435Z,0.00
2023-04-18T00:47:35.382Z,0.00
2023-04-18T00:48:35.324Z,0.00
2023-04-18T00:49:35.297Z,0.00
2023-04-18T00:50:35.280Z,0.00
2023-04-18T00:51:35.274Z,0.00
2023-04-18T00:52:35.217Z,0.00
2023-04-18T00:53:35.184Z,0.00
2023-04-18T00:54:35.151Z,0.00
2023-04-18T00:55:35.120Z,0.00
2023-04-18T00:56:35.106Z,0.00
2023-04-18T00:57:35.064Z,0.00
2023-04-18T00:58:35.036Z,0.00
2023-04-18T00:59:35.005Z,0.00
2023-04-18T01:00:34.993Z,0.00
2023-04-18T01:01:34.981Z,0.00
2023-04-18T01:02:35.027Z,0.00
2023-04-18T01:03:35.183Z,0.00
2023-04-18T01:04:35.014Z,0.00
2023-04-18T01:05:34.836Z,0.00
2023-04-18T01:06:34.806Z,0.00
2023-04-18T01:07:34.837Z,0.00
2023-04-18T01:08:34.749Z,0.00
2023-04-18T01:09:34.717Z,0.00
2023-04-18T01:10:34.695Z,0.00
2023-04-18T01:11:34.661Z,0.00
2023-04-18T01:12:34.629Z,0.00
2023-04-18T01:13:34.604Z,0.00
2023-04-18T01:14:34.575Z,0.00
2023-04-18T01:15:34.564Z,0.00
2023-04-18T01:16:34.517Z,0.00
2023-04-18T01:17:34.548Z,0.00
2023-04-18T01:18:34.467Z,0.00
2023-04-18T01:19:34.440Z,0.00
2023-04-18T01:20:34.402Z,0.00
2023-04-18T01:21:34.372Z,0.00
2023-04-18T01:22:34.345Z,0.00
2023-04-18T01:23:34.333Z,0.00
2023-04-18T01:24:34.289Z,0.00
2023-04-18T01:25:34.263Z,0.00
2023-04-18T01:26:34.234Z,0.00
2023-04-18T01:27:34.197Z,0.00
2023-04-18T01:28:34.173Z,0.00
2023-04-18T01:29:34.144Z,0.00
2023-04-18T01:30:34.114Z,0.00
2023-04-18T01:31:34.133Z,0.00
2023-04-18T01:32:34.102Z,0.00
2023-04-18T01:33:34.029Z,0.00
2023-04-18T01:34:33.996Z,0.00
2023-04-18T01:35:33.969Z,0.00
2023-04-18T01:36:33.957Z,0.00
2023-04-18T01:37:33.916Z,0.00
2023-04-18T01:38:33.884Z,0.00
2023-04-18T01:39:33.943Z,0.00
2023-04-18T01:40:33.831Z,0.00
2023-04-18T01:41:33.797Z,0.00
2023-04-18T01:42:33.767Z,0.00
2023-04-18T01:43:33.741Z,0.00
2023-04-18T01:44:33.729Z,0.00
2023-04-18T01:45:33.688Z,0.00
2023-04-18T01:46:33.679Z,0.00
2023-04-18T01:47:33.659Z,0.00
2023-04-18T01:48:33.598Z,0.00
2023-04-18T01:49:33.568Z,0.00
2023-04-18T01:50:33.541Z,0.00
2023-04-18T01:51:33.512Z,0.00
2023-04-18T01:52:33.488Z,0.00
2023-04-18T01:53:33.454Z,0.00
2023-04-18T01:54:33.426Z,0.00
2023-04-18T01:55:33.417Z,0.00
2023-04-18T01:56:33.374Z,0.00
2023-04-18T01:57:33.336Z,0.00
2023-04-18T01:58:33.310Z,0.00
2023-04-18T01:59:33.282Z,0.00
2023-04-18T02:00:33.272Z,0.00
2023-04-18T02:01:33.225Z,0.00
2023-04-18T02:02:33.419Z,0.00
2023-04-18T02:03:33.406Z,0.00
2023-04-18T02:04:33.141Z,0.00
2023-04-18T02:05:33.110Z,0.00
2023-04-18T02:06:33.081Z,0.00
2023-04-18T02:07:33.053Z,0.00
2023-04-18T02:08:33.022Z,0.00
2023-04-18T02:09:32.999Z,0.00
2023-04-18T02:10:32.967Z,0.00
2023-04-18T02:11:32.978Z,0.00
2023-04-18T02:12:32.907Z,0.00
2023-04-18T02:13:32.927Z,0.00
2023-04-18T02:14:32.853Z,0.00
2023-04-18T02:15:32.825Z,0.00
2023-04-18T02:16:32.888Z,0.00
2023-04-18T02:17:32.793Z,0.00
2023-04-18T02:18:32.737Z,0.00
2023-04-18T02:19:32.709Z,0.00
2023-04-18T02:20:32.684Z,0.00
2023-04-18T02:21:32.659Z,0.00
2023-04-18T02:22:32.623Z,0.00
2023-04-18T02:23:32.597Z,0.00
2023-04-18T02:24:32.565Z,0.00
2023-04-18T02:25:32.535Z,0.00
2023-04-18T02:26:32.510Z,0.00
2023-04-18T02:27:32.505Z,0.00
2023-04-18T02:28:32.451Z,0.00
2023-04-18T02:29:32.427Z,0.00
2023-04-18T02:30:32.398Z,0.00
2023-04-18T02:31:32.409Z,0.00
2023-04-18T02:32:32.354Z,0.00
2023-04-18T02:33:32.329Z,0.00
2023-04-18T02:34:32.278Z,0.00
2023-04-18T02:35:32.251Z,0.00
2023-04-18T02:36:32.221Z,0.00
2023-04-18T02:37:32.196Z,0.00
2023-04-18T02:38:32.165Z,0.00
2023-04-18T02:39:32.144Z,0.00
2023-04-18T02:40:32.114Z,0.00
2023-04-18T02:41:32.085Z,0.00
2023-04-18T02:42:32.048Z,0.00
2023-04-18T02:43:32.041Z,0.00
2023-04-18T02:44:31.991Z,0.00
2023-04-18T02:45:31.966Z,0.00
2023-04-18T02:46:31.970Z,0.00
2023-04-18T02:47:37.714Z,0.00
2023-04-18T02:48:31.945Z,0.00
2023-04-18T02:49:31.849Z,0.00
2023-04-18T02:50:31.822Z,0.00
2023-04-18T02:51:31.789Z,0.00
2023-04-18T02:52:31.760Z,0.00
2023-04-18T02:53:31.737Z,0.00
2023-04-18T02:54:31.702Z,0.00
2023-04-18T02:55:31.671Z,0.00
2023-04-18T02:56:31.645Z,0.00
2023-04-18T02:57:31.618Z,0.00
2023-04-18T02:58:31.586Z,0.00
2023-04-18T02:59:31.575Z,0.00
2023-04-18T03:00:31.540Z,0.00
2023-04-18T03:01:31.574Z,0.00
2023-04-18T03:02:31.619Z,0.00
2023-04-18T03:03:31.494Z,0.00
2023-04-18T03:04:31.464Z,0.00
2023-04-18T03:05:31.393Z,0.00
2023-04-18T03:06:31.353Z,0.00
2023-04-18T03:07:31.326Z,0.00
2023-04-18T03:08:31.301Z,0.00
2023-04-18T03:09:31.272Z,0.00
2023-04-18T03:10:31.243Z,0.00
2023-04-18T03:11:31.213Z,0.00
2023-04-18T03:12:31.184Z,0.00
2023-04-18T03:13:31.160Z,0.00
2023-04-18T03:14:31.131Z,0.00
2023-04-18T03:15:31.166Z,0.00
2023-04-18T03:16:31.068Z,0.00
2023-04-18T03:17:31.064Z,0.00
2023-04-18T03:18:31.012Z,0.00
2023-04-18T03:19:30.984Z,0.00
2023-04-18T03:20:30.952Z,0.00
2023-04-18T03:21:30.924Z,0.00
2023-04-18T03:22:30.893Z,0.00
2023-04-18T03:23:30.869Z,0.00
2023-04-18T03:24:30.836Z,0.00
2023-04-18T03:25:30.810Z,0.00
2023-04-18T03:26:30.783Z,0.00
2023-04-18T03:27:30.760Z,0.00
2023-04-18T03:28:30.723Z,0.00
2023-04-18T03:29:30.693Z,0.00
2023-04-18T03:30:30.665Z,0.00
2023-04-18T03:31:30.754Z,0.00
2023-04-18T03:32:30.635Z,0.00
2023-04-18T03:33:30.584Z,0.00
2023-04-18T03:34:30.573Z,0.00
2023-04-18T03:35:30.520Z,0.00
2023-04-18T03:36:30.488Z,0.00
2023-04-18T03:37:30.463Z,0.00
2023-04-18T03:38:30.431Z,0.00
2023-04-18T03:39:30.405Z,0.00
2023-04-18T03:40:30.379Z,0.00
2023-04-18T03:41:30.359Z,0.00
2023-04-18T03:42:30.331Z,0.00
2023-04-18T03:43:30.289Z,0.00
2023-04-18T03:44:30.259Z,0.00
2023-04-18T03:45:30.235Z,0.00
2023-04-18T03:46:30.218Z,0.00
2023-04-18T03:47:30.227Z,0.00
2023-04-18T03:48:30.143Z,0.00
2023-04-18T03:49:30.123Z,0.00
2023-04-18T03:50:30.088Z,0.00
2023-04-18T03:51:30.055Z,0.00
2023-04-18T03:52:30.082Z,0.00
2023-04-18T03:53:30.007Z,0.00
2023-04-18T03:54:29.970Z,0.00
2023-04-18T03:55:29.958Z,0.00
2023-04-18T03:56:29.922Z,0.00
2023-04-18T03:57:29.901Z,0.00
2023-04-18T03:58:29.858Z,0.00
2023-04-18T03:59:29.833Z,0.00
2023-04-18T04:00:29.811Z,0.00
2023-04-18T04:01:29.822Z,0.00
2023-04-18T04:02:29.839Z,0.00
2023-04-18T04:03:29.780Z,0.00
2023-04-18T04:04:29.704Z,0.00
2023-04-18T04:05:29.664Z,4.00
2023-04-18T04:06:29.627Z,4.00
2023-04-18T04:07:29.601Z,4.00
2023-04-18T04:08:29.582Z,4.00
2023-04-18T04:09:29.546Z,4.00
2023-04-18T04:10:29.532Z,4.00
2023-04-18T04:11:29.494Z,0.00
2023-04-18T04:12:29.455Z,4.00
2023-04-18T04:13:29.431Z,4.00
2023-04-18T04:14:29.397Z,4.00
2023-04-18T04:15:29.375Z,4.00
2023-04-18T04:16:29.441Z,4.00
2023-04-18T04:17:29.379Z,8.00
2023-04-18T04:18:29.284Z,8.00
2023-04-18T04:19:29.280Z,8.00
2023-04-18T04:20:29.227Z,8.00
2023-04-18T04:21:29.196Z,12.00
2023-04-18T04:22:29.169Z,12.00
2023-04-18T04:23:29.145Z,12.00
2023-04-18T04:24:29.151Z,20.00
2023-04-18T04:25:29.084Z,20.00
2023-04-18T04:26:29.054Z,20.00
2023-04-18T04:27:29.024Z,24.00
2023-04-18T04:28:29.006Z,24.00
2023-04-18T04:29:29.017Z,28.00
2023-04-18T04:30:28.955Z,32.00
2023-04-18T04:31:28.968Z,32.00
2023-04-18T04:32:28.898Z,36.00
2023-04-18T04:33:28.890Z,40.00
2023-04-18T04:34:28.819Z,40.00
2023-04-18T04:35:28.823Z,48.00
2023-04-18T04:36:28.758Z,52.00
2023-04-18T04:37:28.739Z,52.00
2023-04-18T04:38:28.702Z,56.00
2023-04-18T04:39:28.680Z,60.00
2023-04-18T04:40:28.643Z,64.00
2023-04-18T04:41:28.640Z,64.00
2023-04-18T04:42:28.584Z,68.00
2023-04-18T04:43:28.560Z,64.00
2023-04-18T04:44:28.547Z,68.00
2023-04-18T04:45:28.532Z,72.00
2023-04-18T04:46:28.469Z,76.00
2023-04-18T04:47:28.478Z,84.00
2023-04-18T04:48:28.415Z,88.00
2023-04-18T04:49:28.391Z,92.00
2023-04-18T04:50:28.355Z,100.00
2023-04-18T04:51:28.342Z,96.00
2023-04-18T04:52:28.296Z,92.00
2023-04-18T04:53:28.285Z,92.00
2023-04-18T04:54:28.240Z,92.00
2023-04-18T04:55:28.222Z,96.00
2023-04-18T04:56:28.181Z,100.00
2023-04-18T04:57:28.156Z,108.00
2023-04-18T04:58:28.126Z,112.00
2023-04-18T04:59:28.098Z,112.00
2023-04-18T05:00:28.075Z,108.00
2023-04-18T05:01:28.078Z,104.00
2023-04-18T05:02:28.184Z,100.00
2023-04-18T05:03:28.105Z,104.00
2023-04-18T05:04:28.104Z,120.00
2023-04-18T05:05:27.928Z,132.00
2023-04-18T05:06:27.894Z,140.00
2023-04-18T05:07:27.904Z,148.00
2023-04-18T05:08:27.840Z,156.00
2023-04-18T05:09:27.807Z,168.00
2023-04-18T05:10:27.777Z,200.00
2023-04-18T05:11:27.772Z,228.00
2023-04-18T05:12:27.720Z,252.00
2023-04-18T05:13:27.692Z,268.00
2023-04-18T05:14:27.663Z,280.00
2023-04-18T05:15:27.637Z,300.00
2023-04-18T05:16:27.632Z,304.00
2023-04-18T05:17:27.588Z,288.00
2023-04-18T05:18:27.546Z,284.00
2023-04-18T05:19:27.514Z,288.00
2023-04-18T05:20:27.487Z,288.00
2023-04-18T05:21:27.465Z,300.00
2023-04-18T05:22:27.445Z,304.00
2023-04-18T05:23:27.419Z,308.00
2023-04-18T05:24:27.370Z,292.00
2023-04-18T05:25:27.346Z,292.00
2023-04-18T05:26:27.317Z,304.00
2023-04-18T05:27:27.285Z,312.00
2023-04-18T05:28:27.258Z,308.00
2023-04-18T05:29:27.231Z,316.00
2023-04-18T05:30:27.208Z,332.00
2023-04-18T05:31:27.275Z,344.00
2023-04-18T05:32:27.194Z,380.00
2023-04-18T05:33:27.125Z,416.00
2023-04-18T05:34:27.082Z,476.00
2023-04-18T05:35:27.066Z,528.00
2023-04-18T05:36:27.032Z,544.00
2023-04-18T05:37:26.999Z,568.00
2023-04-18T05:38:26.982Z,564.00
2023-04-18T05:39:27.062Z,576.00
2023-04-18T05:40:26.916Z,600.00
2023-04-18T05:41:26.886Z,596.00
2023-04-18T05:42:26.863Z,588.00
2023-04-18T05:43:26.832Z,584.00
2023-04-18T05:44:26.797Z,592.00
2023-04-18T05:45:26.774Z,608.00
2023-04-18T05:46:26.782Z,620.00
2023-04-18T05:47:26.771Z,616.00
2023-04-18T05:48:26.685Z,656.00
2023-04-18T05:49:26.654Z,748.00
2023-04-18T05:50:26.623Z,880.00
2023-04-18T05:51:26.615Z,920.00
2023-04-18T05:52:26.570Z,916.00
2023-04-18T05:53:26.539Z,980.00
2023-04-18T05:54:26.516Z,1040.00
2023-04-18T05:55:26.510Z,1020.00
2023-04-18T05:56:26.451Z,1000.00
2023-04-18T05:57:26.423Z,992.00
2023-04-18T05:58:26.394Z,1020.00
2023-04-18T05:59:26.366Z,1036.00
2023-04-18T06:00:26.337Z,1108.00
2023-04-18T06:01:26.311Z,1248.00
2023-04-18T06:02:26.531Z,1368.00
2023-04-18T06:03:26.503Z,1404.00
2023-04-18T06:04:26.300Z,1464.00
2023-04-18T06:05:26.465Z,1520.00
2023-04-18T06:06:26.172Z,1528.00
2023-04-18T06:07:26.170Z,1540.00
2023-04-18T06:08:26.107Z,1500.00
2023-04-18T06:09:26.084Z,1548.00
2023-04-18T06:10:26.046Z,1592.00
2023-04-18T06:11:26.038Z,1484.00
2023-04-18T06:12:25.991Z,1336.00
2023-04-18T06:13:25.963Z,1288.00
2023-04-18T06:14:25.932Z,1272.00
2023-04-18T06:15:25.906Z,1348.00
2023-04-18T06:16:25.923Z,1516.00
2023-04-18T06:17:25.875Z,1656.00
2023-04-18T06:18:25.828Z,1784.00
2023-04-18T06:19:25.800Z,1928.00
2023-04-18T06:20:25.793Z,1908.00
2023-04-18T06:21:25.809Z,1792.00
2023-04-18T06:22:25.798Z,1852.00
2023-04-18T06:23:25.682Z,2116.00
2023-04-18T06:24:25.659Z,2132.00
2023-04-18T06:25:25.617Z,2044.00
2023-04-18T06:26:25.585Z,1892.00
2023-04-18T06:27:31.460Z,1704.00
2023-04-18T06:28:25.531Z,1560.00
2023-04-18T06:29:25.504Z,1556.00
2023-04-18T06:30:25.483Z,1608.00
2023-04-18T06:31:25.509Z,1768.00
2023-04-18T06:32:25.491Z,1940.00
2023-04-18T06:33:25.401Z,2032.00
2023-04-18T06:34:25.355Z,2040.00
2023-04-18T06:35:26.696Z,2188.00
2023-04-18T06:36:25.302Z,2288.00
2023-04-18T06:37:25.272Z,2216.00
2023-04-18T06:38:25.275Z,2076.00
2023-04-18T06:39:25.216Z,1988.00
2023-04-18T06:40:25.210Z,2068.00
2023-04-18T06:41:25.165Z,2188.00
2023-04-18T06:42:25.131Z,2292.00
2023-04-18T06:43:25.249Z,2332.00
2023-04-18T06:44:25.080Z,2224.00
2023-04-18T06:45:25.050Z,2216.00
2023-04-18T06:46:25.201Z,2068.00
2023-04-18T06:47:25.050Z,1988.00
2023-04-18T06:48:24.963Z,1972.00
2023-04-18T06:49:26.340Z,1928.00
2023-04-18T06:50:24.923Z,2012.00
2023-04-18T06:51:24.880Z,2120.00
2023-04-18T06:52:24.845Z,2216.00
2023-04-18T06:53:24.818Z,2212.00
2023-04-18T06:54:24.789Z,2180.00
2023-04-18T06:55:24.762Z,2168.00
2023-04-18T06:56:24.739Z,2208.00
2023-04-18T06:57:24.703Z,2276.00
2023-04-18T06:58:24.681Z,2408.00
2023-04-18T06:59:24.680Z,2504.00
2023-04-18T07:00:24.619Z,2624.00
2023-04-18T07:01:24.620Z,2836.00
2023-04-18T07:02:24.687Z,2892.00
2023-04-18T07:03:24.645Z,2756.00
2023-04-18T07:04:24.831Z,2592.00
2023-04-18T07:05:24.472Z,2556.00
2023-04-18T07:06:24.445Z,2628.00
2023-04-18T07:07:24.419Z,2896.00
2023-04-18T07:08:24.391Z,3124.00
2023-04-18T07:09:24.360Z,3184.00
2023-04-18T07:10:24.375Z,3228.00
2023-04-18T07:11:24.304Z,3348.00
2023-04-18T07:12:24.275Z,3556.00
2023-04-18T07:13:24.248Z,3752.00
2023-04-18T07:14:24.227Z,3988.00
2023-04-18T07:15:24.219Z,4344.00
2023-04-18T07:16:24.207Z,4612.00
2023-04-18T07:17:24.145Z,4764.00
2023-04-18T07:18:36.502Z,4904.00
2023-04-18T07:19:24.071Z,5028.00
2023-04-18T07:20:24.046Z,5152.00
2023-04-18T07:21:24.035Z,5284.00
2023-04-18T07:22:23.991Z,5308.00
2023-04-18T07:23:23.959Z,5228.00
2023-04-18T07:24:23.941Z,5208.00
2023-04-18T07:25:23.901Z,5224.00
2023-04-18T07:26:23.873Z,5332.00
2023-04-18T07:27:23.852Z,5440.00
2023-04-18T07:28:23.817Z,5404.00
2023-04-18T07:29:23.792Z,5376.00
2023-04-18T07:30:23.767Z,5176.00
2023-04-18T07:31:23.870Z,5008.00
2023-04-18T07:32:23.746Z,4996.00
2023-04-18T07:33:23.673Z,4948.00
2023-04-18T07:34:23.647Z,5040.00
2023-04-18T07:35:23.619Z,5240.00
2023-04-18T07:36:23.612Z,5404.00
2023-04-18T07:37:23.623Z,5608.00
2023-04-18T07:38:23.536Z,5768.00
2023-04-18T07:39:23.507Z,5540.00
2023-04-18T07:40:23.486Z,5284.00
2023-04-18T07:41:23.473Z,5156.00
2023-04-18T07:42:23.428Z,5112.00
2023-04-18T07:43:23.396Z,5004.00
2023-04-18T07:44:23.371Z,4812.00
2023-04-18T07:45:23.345Z,4656.00
2023-04-18T07:46:23.339Z,4544.00
2023-04-18T07:47:23.336Z,4612.00
2023-04-18T07:48:23.258Z,4764.00
2023-04-18T07:49:23.230Z,4992.00
2023-04-18T07:50:23.202Z,5320.00
2023-04-18T07:51:23.173Z,5704.00
2023-04-18T07:52:23.149Z,6172.00
2023-04-18T07:53:23.118Z,6612.00
2023-04-18T07:54:23.100Z,6784.00
2023-04-18T07:55:23.068Z,7004.00
2023-04-18T07:56:23.044Z,7320.00
2023-04-18T07:57:23.008Z,7668.00
2023-04-18T07:58:22.980Z,8108.00
2023-04-18T07:59:22.961Z,8556.00
2023-04-18T08:00:22.923Z,8764.00
2023-04-18T08:01:22.896Z,8980.00
2023-04-18T08:02:23.014Z,9004.00
2023-04-18T08:03:23.215Z,9120.00
2023-04-18T08:04:23.030Z,9168.00
2023-04-18T08:05:22.839Z,9232.00
2023-04-18T08:06:22.779Z,9192.00
2023-04-18T08:07:22.731Z,9272.00
2023-04-18T08:08:22.719Z,9716.00
2023-04-18T08:09:22.675Z,9964.00
2023-04-18T08:10:23.913Z,10148.00
2023-04-18T08:11:22.649Z,10304.00
2023-04-18T08:12:22.593Z,10264.00
2023-04-18T08:13:22.573Z,10372.00
2023-04-18T08:14:22.540Z,10384.00
2023-04-18T08:15:22.510Z,11408.00
2023-04-18T08:16:22.509Z,10812.00
2023-04-18T08:17:22.469Z,11652.00
2023-04-18T08:18:22.431Z,11284.00
2023-04-18T08:19:22.475Z,11112.00
2023-04-18T08:20:22.382Z,10704.00
2023-04-18T08:21:22.354Z,10792.00
2023-04-18T08:22:22.325Z,10628.00
2023-04-18T08:23:22.297Z,10056.00
2023-04-18T08:24:22.270Z,9700.00
2023-04-18T08:25:22.242Z,9032.00
2023-04-18T08:26:22.234Z,8164.00
2023-04-18T08:27:22.190Z,8156.00
2023-04-18T08:28:22.166Z,8064.00
2023-04-18T08:29:22.135Z,8208.00
2023-04-18T08:30:22.106Z,7116.00
2023-04-18T08:31:22.105Z,7292.00
2023-04-18T08:32:22.121Z,6300.00
2023-04-18T08:33:22.029Z,5712.00
2023-04-18T08:34:22.012Z,5700.00
2023-04-18T08:35:22.013Z,6040.00
2023-04-18T08:36:21.993Z,6520.00
2023-04-18T08:37:21.924Z,7320.00
2023-04-18T08:38:21.896Z,7832.00
2023-04-18T08:39:23.144Z,8140.00
2023-04-18T08:40:21.854Z,8392.00
2023-04-18T08:41:21.816Z,8960.00
2023-04-18T08:42:21.786Z,9532.00
2023-04-18T08:43:21.759Z,9820.00
2023-04-18T08:44:21.749Z,10028.00
2023-04-18T08:45:21.703Z,10220.00
2023-04-18T08:46:21.705Z,10208.00
2023-04-18T08:47:21.681Z,10416.00
2023-04-18T08:48:21.626Z,10496.00
2023-04-18T08:49:21.597Z,10388.00
2023-04-18T08:50:21.571Z,10200.00
2023-04-18T08:51:21.714Z,10192.00
2023-04-18T08:52:21.531Z,10364.00
2023-04-18T08:53:21.488Z,10272.00
2023-04-18T08:54:21.463Z,9776.00
2023-04-18T08:55:21.433Z,9452.00
2023-04-18T08:56:21.408Z,9084.00
2023-04-18T08:57:21.380Z,8772.00
2023-04-18T08:58:21.350Z,8356.00
2023-04-18T08:59:21.347Z,7852.00
2023-04-18T09:00:21.306Z,7472.00
2023-04-18T09:01:21.311Z,7092.00
2023-04-18T09:02:21.282Z,6944.00
2023-04-18T09:03:21.274Z,7136.00
2023-04-18T09:04:21.222Z,7280.00
2023-04-18T09:05:21.165Z,7252.00
2023-04-18T09:06:21.137Z,7296.00
2023-04-18T09:07:21.161Z,7344.00
2023-04-18T09:08:21.091Z,7492.00
2023-04-18T09:09:21.057Z,7584.00
2023-04-18T09:10:21.031Z,7964.00
2023-04-18T09:11:21.011Z,8728.00
2023-04-18T09:12:20.983Z,9164.00
2023-04-18T09:13:22.081Z,9452.00
2023-04-18T09:14:20.924Z,9824.00
2023-04-18T09:15:20.901Z,10136.00
2023-04-18T09:16:20.925Z,10432.00
2023-04-18T09:17:20.850Z,10392.00
2023-04-18T09:18:20.817Z,10464.00
2023-04-18T09:19:20.796Z,10452.00
2023-04-18T09:20:20.762Z,10312.00
2023-04-18T09:21:20.740Z,10240.00
2023-04-18T09:22:20.713Z,9972.00
2023-04-18T09:23:20.711Z,9656.00
2023-04-18T09:24:20.698Z,9896.00
2023-04-18T09:25:20.634Z,10024.00
2023-04-18T09:26:20.610Z,10808.00
2023-04-18T09:27:20.580Z,11248.00
2023-04-18T09:28:20.561Z,10528.00
2023-04-18T09:29:20.538Z,10296.00
2023-04-18T09:30:20.508Z,10448.00
2023-04-18T09:31:20.519Z,10468.00
2023-04-18T09:32:20.507Z,9892.00
2023-04-18T09:33:20.426Z,9916.00
2023-04-18T09:34:20.408Z,9872.00
2023-04-18T09:35:20.370Z,10180.00
2023-04-18T09:36:20.451Z,10284.00
2023-04-18T09:37:20.322Z,9752.00
2023-04-18T09:38:20.296Z,9216.00
2023-04-18T09:39:20.308Z,8584.00
2023-04-18T09:40:20.245Z,8772.00
2023-04-18T09:41:21.572Z,9592.00
2023-04-18T09:42:20.204Z,10540.00
2023-04-18T09:43:20.169Z,10856.00
2023-04-18T09:44:20.594Z,11316.00
2023-04-18T09:45:20.114Z,11684.00
2023-04-18T09:46:20.136Z,11700.00
2023-04-18T09:47:20.059Z,11256.00
2023-04-18T09:48:20.034Z,10884.00
2023-04-18T09:49:20.011Z,10612.00
2023-04-18T09:50:19.984Z,10308.00
2023-04-18T09:51:19.958Z,9716.00
2023-04-18T09:52:19.937Z,9780.00
2023-04-18T09:53:21.008Z,10636.00
2023-04-18T09:54:19.883Z,11232.00
2023-04-18T09:55:19.893Z,11588.00
2023-04-18T09:56:19.833Z,11908.00
2023-04-18T09:57:19.803Z,12076.00
2023-04-18T09:58:19.770Z,12084.00
2023-04-18T09:59:21.218Z,12228.00
2023-04-18T10:00:19.715Z,12492.00
2023-04-18T10:01:19.730Z,12752.00
2023-04-18T10:02:19.760Z,12548.00
2023-04-18T10:03:19.866Z,12284.00
2023-04-18T10:04:19.733Z,11944.00
2023-04-18T10:05:21.133Z,12364.00
2023-04-18T10:06:19.566Z,12952.00
2023-04-18T10:07:19.535Z,12868.00
2023-04-18T10:08:19.510Z,13236.00
2023-04-18T10:09:19.482Z,13688.00
2023-04-18T10:10:19.459Z,13640.00
2023-04-18T10:11:20.350Z,13200.00
2023-04-18T10:12:19.420Z,12492.00
2023-04-18T10:13:19.380Z,11992.00
2023-04-18T10:14:19.354Z,12264.00
2023-04-18T10:15:19.329Z,12248.00
2023-04-18T10:16:19.349Z,12348.00
2023-04-18T10:17:19.311Z,12088.00
2023-04-18T10:18:19.288Z,11856.00
2023-04-18T10:19:19.226Z,11396.00
2023-04-18T10:20:19.200Z,11076.00
2023-04-18T10:21:19.190Z,10924.00
2023-04-18T10:22:19.159Z,11096.00
2023-04-18T10:23:19.123Z,11984.00
2023-04-18T10:24:19.099Z,13140.00
2023-04-18T10:25:19.070Z,14708.00
2023-04-18T10:26:19.051Z,14780.00
2023-04-18T10:27:19.096Z,13264.00
2023-04-18T10:28:18.997Z,12268.00
2023-04-18T10:29:18.971Z,10928.00
2023-04-18T10:30:18.945Z,9800.00
2023-04-18T10:31:18.932Z,9576.00
2023-04-18T10:32:18.895Z,9132.00
2023-04-18T10:33:29.422Z,8880.00
2023-04-18T10:34:18.914Z,8704.00
2023-04-18T10:35:18.824Z,8388.00
2023-04-18T10:36:18.795Z,8624.00
2023-04-18T10:37:18.805Z,9352.00
2023-04-18T10:38:18.743Z,9496.00
2023-04-18T10:39:18.720Z,9160.00
2023-04-18T10:40:18.697Z,10296.00
2023-04-18T10:41:18.685Z,10784.00
2023-04-18T10:42:18.651Z,10044.00
2023-04-18T10:43:18.659Z,8960.00
2023-04-18T10:44:18.655Z,9268.00
2023-04-18T10:45:18.563Z,10452.00
2023-04-18T10:46:31.103Z,11568.00
2023-04-18T10:47:18.521Z,12364.00
2023-04-18T10:48:18.525Z,12524.00
2023-04-18T10:49:18.474Z,11932.00
2023-04-18T10:50:18.437Z,10808.00
2023-04-18T10:51:18.428Z,10192.00
2023-04-18T10:52:18.389Z,9616.00
2023-04-18T10:53:18.362Z,9592.00
2023-04-18T10:54:18.338Z,8764.00
2023-04-18T10:55:18.325Z,8816.00
2023-04-18T10:56:18.283Z,9300.00
2023-04-18T10:57:18.261Z,9028.00
2023-04-18T10:58:18.230Z,8700.00
2023-04-18T10:59:18.354Z,9460.00
2023-04-18T11:00:18.185Z,10804.00
2023-04-18T11:01:18.199Z,11136.00
2023-04-18T11:02:18.183Z,11368.00
2023-04-18T11:03:18.260Z,11352.00
2023-04-18T11:04:18.410Z,13012.00
2023-04-18T11:05:18.053Z,12368.00
2023-04-18T11:06:18.025Z,12556.00
2023-04-18T11:07:18.003Z,12520.00
2023-04-18T11:08:17.986Z,12248.00
2023-04-18T11:09:17.950Z,11648.00
2023-04-18T11:10:17.939Z,11856.00
2023-04-18T11:11:17.915Z,12648.00
2023-04-18T11:12:17.971Z,12408.00
2023-04-18T11:13:17.848Z,12228.00
2023-04-18T11:14:18.011Z,12192.00
2023-04-18T11:15:17.997Z,11800.00
2023-04-18T11:16:17.787Z,11132.00
2023-04-18T11:17:17.749Z,10508.00
2023-04-18T11:18:17.731Z,10836.00
2023-04-18T11:19:17.696Z,12428.00
2023-04-18T11:20:17.673Z,12440.00
2023-04-18T11:21:17.669Z,12944.00
2023-04-18T11:22:17.630Z,13940.00
2023-04-18T11:23:17.595Z,13732.00
2023-04-18T11:24:17.575Z,13520.00
2023-04-18T11:25:17.561Z,12676.00
2023-04-18T11:26:17.526Z,13076.00
2023-04-18T11:27:17.494Z,12560.00
2023-04-18T11:28:17.469Z,12136.00
2023-04-18T11:29:17.450Z,12136.00
2023-04-18T11:30:17.421Z,11816.00
2023-04-18T11:31:17.451Z,11716.00
2023-04-18T11:32:17.475Z,11436.00
2023-04-18T11:33:17.413Z,11548.00
2023-04-18T11:34:17.324Z,11644.00
2023-04-18T11:35:17.304Z,12064.00
2023-04-18T11:36:17.271Z,11752.00
2023-04-18T11:37:17.245Z,12008.00
2023-04-18T11:38:17.217Z,12024.00
2023-04-18T11:39:17.193Z,12172.00
2023-04-18T11:40:17.187Z,12240.00
2023-04-18T11:41:17.145Z,11544.00
2023-04-18T11:42:17.114Z,11452.00
2023-04-18T11:43:17.094Z,12304.00
2023-04-18T11:44:17.071Z,11860.00
2023-04-18T11:45:17.041Z,12028.00
2023-04-18T11:46:17.070Z,11960.00
2023-04-18T11:47:17.056Z,11948.00
2023-04-18T11:48:16.967Z,12436.00
2023-04-18T11:49:16.953Z,12612.00
2023-04-18T11:50:17.000Z,12976.00
2023-04-18T11:51:16.894Z,12688.00
2023-04-18T11:52:16.872Z,12372.00
2023-04-18T11:53:16.854Z,12120.00
2023-04-18T11:54:16.817Z,12332.00
2023-04-18T11:55:16.801Z,11692.00
2023-04-18T11:56:16.770Z,11368.00
2023-04-18T11:57:16.742Z,11756.00
2023-04-18T11:58:16.731Z,12048.00
2023-04-18T11:59:16.694Z,12452.00
2023-04-18T12:00:16.675Z,13600.00
2023-04-18T12:01:16.655Z,14272.00
2023-04-18T12:02:17.266Z,14076.00
2023-04-18T12:03:16.895Z,14072.00
2023-04-18T12:04:16.854Z,14216.00
2023-04-18T12:05:16.763Z,13988.00
2023-04-18T12:06:16.607Z,14948.00
2023-04-18T12:07:16.494Z,15940.00
2023-04-18T12:08:16.470Z,17248.00
2023-04-18T12:09:16.464Z,17024.00
2023-04-18T12:10:16.421Z,16412.00
2023-04-18T12:11:16.397Z,16672.00
2023-04-18T12:12:16.377Z,16164.00
2023-04-18T12:13:16.358Z,14820.00
2023-04-18T12:14:16.321Z,14052.00
2023-04-18T12:15:16.330Z,15324.00
2023-04-18T12:16:16.320Z,15280.00
2023-04-18T12:17:16.251Z,15844.00
2023-04-18T12:18:16.226Z,16040.00
2023-04-18T12:19:16.229Z,15888.00
2023-04-18T12:20:16.197Z,15792.00
2023-04-18T12:21:16.156Z,14868.00
2023-04-18T12:22:16.128Z,14028.00
2023-04-18T12:23:16.111Z,13824.00
2023-04-18T12:24:16.269Z,14108.00
2023-04-18T12:25:16.055Z,14284.00
2023-04-18T12:26:16.043Z,13816.00
2023-04-18T12:27:16.009Z,12992.00